< < Back
Terminal Aerodrome Forecast


Current Version              Previous Versions:   1  2  3  4  5  6  7  8  9  

Terminal Aerodrome Forecast

328
FTUS44 KBMX 252300
TAFBHM
TAF
KBHM 252320Z 2600/2624 32003KT P6SM OVC100
     FM260700 30003KT P6SM SCT025 BKN250
     FM261800 24009KT P6SM SCT250=

Latest METAR

272
SAUS70 KWBC 261200 RRH
MTRBHM
METAR KBHM 261153Z 30008KT 10SM CLR 01/M02 A3015 RMK AO2 SLP212
T00111017 10072 20011 53013


USA.gov is the U.S. government's official web portal to all federal, state and local government web resources and services.